Time;durP1;ratioP1;P1;durP2;ratioP2;P2;SDS_P1;SDS_P2;PMS_P1;PMS_P2;Temp;Humidity;BMP_temperature;BMP_pressure;BME280_temperature;BME280_humidity;BME280_pressure;Samples;Min_cycle;Max_cycle;Signal;HPM_P1;HPM_P2
2023/09/01 00:01:03;;;;;;;;;;;19.20;93.00;;;19.46;54.35;98476.00;4933900;28;114432;-85
2023/09/01 00:03:29;;;;;;;;;;;19.20;92.90;;;19.45;54.33;98471.59;4947942;28;113185;-85
2023/09/01 00:05:58;;;;;;;;;;;19.10;92.90;;;19.42;54.55;98461.94;4945703;28;124186;-87
2023/09/01 00:08:29;;;;;;;;;;;19.10;92.90;;;19.43;54.26;98462.75;4920053;28;124094;-87
2023/09/01 00:10:55;;;;;;;;;;;19.10;92.90;;;19.42;54.66;98461.94;4936232;28;114578;-87
2023/09/01 00:13:22;;;;;;;;;;;19.10;93.00;;;19.42;54.71;98461.94;4933505;28;113703;-87
2023/09/01 00:15:48;;;;;;;;;;;19.10;93.00;;;19.41;54.39;98465.91;4946316;28;124259;-87
2023/09/01 00:18:14;;;;;;;;;;;19.10;93.00;;;19.42;54.51;98469.53;4914700;28;124268;-87
2023/09/01 00:20:40;;;;;;;;;;;19.10;92.90;;;19.41;54.50;98465.91;4929705;28;114577;-87
2023/09/01 00:23:07;;;;;;;;;;;19.10;93.00;;;19.41;54.57;98471.53;4942863;28;114091;-87
2023/09/01 00:25:33;;;;;;;;;;;19.10;93.00;;;19.41;54.28;98473.53;4916214;28;125059;-88
2023/09/01 00:28:00;;;;;;;;;;;19.10;92.90;;;19.41;54.39;98465.91;4945378;28;124062;-88
2023/09/01 00:30:29;;;;;;;;;;;19.10;92.90;;;19.41;54.24;98460.31;4937783;28;115476;-88
2023/09/01 00:32:57;;;;;;;;;;;19.10;92.90;;;19.41;54.47;98460.31;4947144;28;114807;-88
2023/09/01 00:35:24;;;;;;;;;;;19.10;92.90;;;19.43;54.50;98468.34;4948951;28;124024;-87
2023/09/01 00:37:51;;;;;;;;;;;19.10;92.90;;;19.44;54.20;98464.34;4933726;28;123828;-87
2023/09/01 00:40:18;;;;;;;;;;;19.10;92.90;;;19.45;54.14;98456.75;4936885;28;114874;-86
2023/09/01 00:42:44;;;;;;;;;;;19.10;92.90;;;19.44;54.30;98453.16;4942170;28;113753;-86
2023/09/01 00:45:11;;;;;;;;;;;19.10;92.90;;;19.43;54.24;98452.34;4958179;28;124161;-88
2023/09/01 00:47:37;;;;;;;;;;;19.10;92.90;;;19.45;54.48;98462.34;4944309;28;123602;-87
2023/09/01 00:50:07;;;;;;;;;;;19.10;92.90;;;19.47;54.15;98462.78;4938645;28;114435;-87
2023/09/01 00:52:35;;;;;;;;;;;19.10;92.90;;;19.48;54.17;98458.78;4931342;28;114353;-86
2023/09/01 00:55:01;;;;;;;;;;;19.10;92.90;;;19.48;53.96;98461.59;4947057;28;124799;-87
2023/09/01 00:57:27;;;;;;;;;;;19.10;92.80;;;19.48;54.07;98458.78;4933464;28;123413;-87
2023/09/01 00:59:54;;;;;;;;;;;19.10;92.80;;;19.48;53.92;98453.19;4930625;28;115116;-86
2023/09/01 01:02:20;;;;;;;;;;;19.10;92.80;;;19.46;54.12;98449.97;4940631;28;113578;-86
2023/09/01 01:04:47;;;;;;;;;;;19.10;92.80;;;19.44;53.98;98450.34;4943156;28;124272;-87
2023/09/01 01:07:27;;;;;;;;;;;19.10;92.80;;;19.45;53.97;98451.97;4946864;28;123736;-87
2023/09/01 01:10:04;;;;;;;;;;;19.10;92.80;;;19.42;53.83;98450.75;4934870;28;114377;-87
2023/09/01 01:12:46;;;;;;;;;;;19.10;92.80;;;19.41;53.90;98448.31;4939764;28;114078;-87
2023/09/01 01:15:16;;;;;;;;;;;19.10;92.80;;;19.36;53.96;98441.03;4948928;28;123099;-86
2023/09/01 01:17:44;;;;;;;;;;;19.10;92.80;;;19.35;54.34;98444.22;4930292;28;122883;-87
2023/09/01 01:20:16;;;;;;;;;;;19.10;92.80;;;19.36;54.16;98443.84;4931560;28;115421;-87
2023/09/01 01:22:56;;;;;;;;;;;19.00;92.80;;;19.37;54.10;98451.06;4941418;28;114883;-87
2023/09/01 01:25:31;;;;;;;;;;;19.10;92.90;;;19.36;54.31;98448.63;4955913;28;123536;-86
2023/09/01 01:28:04;;;;;;;;;;;19.00;92.90;;;19.32;54.44;98457.00;4947443;28;124165;-87
2023/09/01 01:30:31;;;;;;;;;;;19.00;93.10;;;19.29;55.28;98451.34;4949678;28;115009;-87
2023/09/01 01:32:57;;;;;;;;;;;19.00;93.40;;;19.25;55.83;98444.88;4946893;28;113842;-86
2023/09/01 01:35:49;;;;;;;;;;;18.90;93.70;;;19.20;56.12;98452.41;4929490;28;124605;-87
2023/09/01 01:38:23;;;;;;;;;;;18.90;93.80;;;19.17;56.48;98443.97;4946534;28;123506;-86
2023/09/01 01:40:51;;;;;;;;;;;18.90;94.00;;;19.13;57.02;98448.75;4950649;28;114392;-86
2023/09/01 01:43:23;;;;;;;;;;;18.80;94.30;;;19.09;57.01;98447.88;4931318;28;113627;-87
2023/09/01 01:45:49;;;;;;;;;;;18.80;94.40;;;19.03;57.38;98449.38;4922401;28;123975;-87
2023/09/01 01:48:16;;;;;;;;;;;18.70;94.60;;;18.96;57.73;98450.88;4946645;28;124666;-87
2023/09/01 01:50:42;;;;;;;;;;;18.70;94.70;;;18.92;57.85;98450.03;4934179;28;114463;-87
2023/09/01 01:53:08;;;;;;;;;;;18.70;94.80;;;18.89;57.97;98447.97;4951701;28;113338;-87
2023/09/01 01:55:37;;;;;;;;;;;18.60;94.80;;;18.87;58.18;98441.94;4937852;28;124544;-88
2023/09/01 01:58:07;;;;;;;;;;;18.60;94.90;;;18.84;58.42;98439.09;4950201;28;123159;-87
2023/09/01 02:00:33;;;;;;;;;;;18.60;95.00;;;18.83;58.43;98443.06;4950283;28;114177;-87
2023/09/01 02:03:00;;;;;;;;;;;18.60;95.10;;;18.83;58.50;98445.88;4957335;28;113937;-86
2023/09/01 02:05:26;;;;;;;;;;;18.60;95.30;;;18.84;58.71;98441.91;4935669;28;124387;-87
2023/09/01 02:07:52;;;;;;;;;;;18.60;95.40;;;18.85;58.67;98437.91;4943839;28;124105;-87
2023/09/01 02:10:18;;;;;;;;;;;18.60;95.40;;;18.87;58.85;98447.53;4946196;28;115667;-87
2023/09/01 02:12:45;;;;;;;;;;;18.60;95.50;;;18.88;58.76;98442.75;4943028;28;114528;-87
2023/09/01 02:15:11;;;;;;;;;;;18.60;95.50;;;18.91;58.90;98447.59;4940537;28;124518;-87
2023/09/01 02:17:37;;;;;;;;;;;18.60;95.60;;;18.89;59.00;98453.59;4946383;28;123674;-86
2023/09/01 02:20:16;;;;;;;;;;;18.60;95.70;;;18.88;59.19;98454.75;4951263;28;114827;-87
2023/09/01 02:22:43;;;;;;;;;;;18.60;95.70;;;18.89;59.03;98456.38;4948859;28;114101;-88
2023/09/01 02:25:10;;;;;;;;;;;18.60;95.80;;;18.89;59.27;98464.78;4955370;28;123998;-87
2023/09/01 02:27:40;;;;;;;;;;;18.60;95.90;;;18.87;59.35;98452.34;4946952;28;124071;-87
2023/09/01 02:30:08;;;;;;;;;;;18.60;95.90;;;18.89;59.59;98450.78;4952326;28;112784;-88
2023/09/01 02:32:38;;;;;;;;;;;18.60;96.00;;;18.91;59.53;98453.19;4963316;28;114307;-88
2023/09/01 02:35:08;;;;;;;;;;;18.50;96.10;;;18.89;59.71;98464.78;4929608;28;124817;-88
2023/09/01 02:37:38;;;;;;;;;;;18.60;96.10;;;18.90;59.72;98455.19;4950388;28;124089;-86
2023/09/01 02:40:10;;;;;;;;;;;18.60;96.20;;;18.92;59.93;98454.81;4969020;28;114013;-86
2023/09/01 02:42:38;;;;;;;;;;;18.60;96.30;;;18.94;59.83;98470.06;4950017;28;113902;-87
2023/09/01 02:45:05;;;;;;;;;;;18.60;96.40;;;18.94;59.77;98463.63;4932821;28;124076;-87
2023/09/01 02:47:31;;;;;;;;;;;18.60;96.40;;;18.95;59.77;98462.47;4924468;28;123801;-86
2023/09/01 02:49:58;;;;;;;;;;;18.60;96.40;;;18.98;60.00;98464.50;4919353;28;114168;-87
2023/09/01 02:52:24;;;;;;;;;;;18.60;96.40;;;19.00;59.79;98464.13;4951080;28;113836;-87
2023/09/01 02:54:50;;;;;;;;;;;18.60;96.50;;;19.00;60.02;98464.13;4936061;28;124863;-87
2023/09/01 02:57:17;;;;;;;;;;;18.60;96.50;;;19.02;60.07;98470.16;4935063;28;123868;-87
2023/09/01 02:59:43;;;;;;;;;;;18.60;96.60;;;19.03;60.02;98460.59;4948842;28;115147;-87
2023/09/01 03:02:10;;;;;;;;;;;18.60;96.70;;;19.01;60.17;98463.75;4948948;28;114469;-88
2023/09/01 03:04:39;;;;;;;;;;;18.60;96.60;;;19.02;60.14;98461.75;4925261;28;123246;-86
2023/09/01 03:07:05;;;;;;;;;;;18.60;96.60;;;19.01;60.08;98455.34;4948149;28;123814;-87
2023/09/01 03:09:31;;;;;;;;;;;18.70;96.70;;;19.02;60.05;98464.56;4951800;28;113987;-88
2023/09/01 03:11:57;;;;;;;;;;;18.70;97.00;;;19.05;60.04;98461.00;4950466;28;113948;-87
2023/09/01 03:14:26;;;;;;;;;;;18.70;96.60;;;19.06;60.04;98471.81;4932431;28;124581;-87
2023/09/01 03:16:52;;;;;;;;;;;18.70;96.70;;;19.07;60.12;98465.03;4947919;28;123182;-87
2023/09/01 03:19:18;;;;;;;;;;;18.70;96.70;;;19.08;60.19;98474.25;4921431;28;113796;-87
2023/09/01 03:21:45;;;;;;;;;;;18.70;96.70;;;19.09;60.30;98470.25;4949540;28;113979;-86
2023/09/01 03:24:11;;;;;;;;;;;18.80;96.80;;;19.10;60.17;98466.28;4947653;28;124781;-87
2023/09/01 03:26:46;;;;;;;;;;;18.70;96.70;;;19.11;60.37;98479.09;4938151;28;124138;-87
2023/09/01 03:29:12;;;;;;;;;;;18.80;96.80;;;19.10;60.50;98481.09;4936711;28;115225;-87
2023/09/01 03:31:39;;;;;;;;;;;18.80;96.80;;;19.11;60.25;98484.72;4949670;28;113891;-87
2023/09/01 03:34:07;;;;;;;;;;;18.70;96.80;;;19.12;60.33;98470.31;4934432;28;124010;-87
2023/09/01 03:36:33;;;;;;;;;;;18.80;96.90;;;19.12;60.38;98470.31;4935900;28;123845;-87
2023/09/01 03:39:00;;;;;;;;;;;18.80;96.90;;;19.13;60.21;98471.94;4938455;28;114494;-87
2023/09/01 03:41:26;;;;;;;;;;;18.80;96.90;;;19.14;60.17;98483.94;4934189;28;113688;-86
2023/09/01 03:43:52;;;;;;;;;;;18.80;96.90;;;19.15;60.26;98477.16;4939650;28;124109;-86
2023/09/01 03:46:20;;;;;;;;;;;18.80;97.00;;;19.13;60.29;98482.34;4944834;28;98052;-87
2023/09/01 03:48:47;;;;;;;;;;;18.80;96.90;;;19.12;60.48;98492.72;4941089;28;115480;-86
2023/09/01 03:51:17;;;;;;;;;;;18.70;96.90;;;19.12;60.36;98477.91;4943740;28;114657;-87
2023/09/01 03:53:43;;;;;;;;;;;18.70;97.00;;;19.10;60.24;98477.47;4948920;28;124869;-86
2023/09/01 03:56:13;;;;;;;;;;;18.70;97.00;;;19.10;60.50;98480.28;4936972;28;124187;-87
2023/09/01 03:58:42;;;;;;;;;;;18.70;96.90;;;19.08;60.39;98475.06;4941997;28;114390;-87
2023/09/01 04:01:12;;;;;;;;;;;18.70;96.90;;;19.08;60.60;98474.25;4933976;28;113620;-86
2023/09/01 04:03:43;;;;;;;;;;;18.70;97.00;;;19.07;60.59;98472.63;4957689;28;124354;-86
2023/09/01 04:06:10;;;;;;;;;;;18.70;97.00;;;19.07;60.56;98472.63;4934503;28;124528;-87
2023/09/01 04:08:39;;;;;;;;;;;18.70;97.00;;;19.07;60.58;98475.44;4944116;28;114258;-87
2023/09/01 04:11:05;;;;;;;;;;;17.60;96.50;;;19.07;60.73;98481.84;4949823;28;113849;-87
2023/09/01 04:13:32;;;;;;;;;;;18.80;97.00;;;19.08;60.58;98471.47;4931203;28;124123;-87
2023/09/01 04:15:59;;;;;;;;;;;18.80;97.00;;;19.07;60.64;98478.22;4923104;28;123787;-87
2023/09/01 04:18:25;;;;;;;;;;;18.80;97.00;;;19.07;60.72;98484.63;4959957;28;114975;-86
2023/09/01 04:20:53;;;;;;;;;;;18.80;97.00;;;19.09;60.62;98476.66;4932273;28;113906;-87
2023/09/01 04:23:20;;;;;;;;;;;18.80;97.00;;;19.10;60.44;98478.31;4933882;28;123611;-87
2023/09/01 04:25:47;;;;;;;;;;;18.80;97.00;;;19.12;60.69;98472.31;4928772;28;123976;-87
2023/09/01 04:28:14;;;;;;;;;;;18.90;97.00;;;19.13;60.61;98474.75;4956310;28;114279;-87
2023/09/01 04:30:43;;;;;;;;;;;18.80;96.90;;;19.14;60.63;98464.34;4949681;28;114119;-86
2023/09/01 04:33:10;;;;;;;;;;;18.90;97.00;;;19.16;60.48;98470.38;4944765;28;124284;-87
2023/09/01 04:35:36;;;;;;;;;;;18.90;97.00;;;19.19;60.42;98472.41;4931233;28;123875;-87
2023/09/01 04:38:03;;;;;;;;;;;18.90;96.90;;;19.20;60.48;98472.03;4922765;28;115376;-86
2023/09/01 04:40:31;;;;;;;;;;;18.90;97.00;;;19.24;60.22;98468.50;4949069;28;114712;-87
2023/09/01 04:42:59;;;;;;;;;;;18.90;97.00;;;19.27;60.32;98468.53;4940450;28;124208;-87
2023/09/01 04:45:28;;;;;;;;;;;19.00;97.00;;;19.30;60.45;98475.38;4937362;28;123662;-87
2023/09/01 04:47:56;;;;;;;;;;;19.00;97.00;;;19.33;60.31;98471.81;4941855;28;115019;-87
2023/09/01 04:50:22;;;;;;;;;;;19.00;97.00;;;19.36;60.23;98474.66;4941575;28;113889;-86
2023/09/01 04:52:49;;;;;;;;;;;19.00;97.00;;;19.39;60.17;98478.69;4951637;28;124800;-87
2023/09/01 04:55:15;;;;;;;;;;;19.10;97.00;;;19.39;60.50;98467.47;4933362;28;123173;-86
2023/09/01 04:57:46;;;;;;;;;;;19.10;97.00;;;19.40;60.00;98474.72;4947810;28;114392;-87
2023/09/01 05:00:16;;;;;;;;;;;19.10;97.00;;;19.40;59.92;98474.72;4904380;28;112866;-85
2023/09/01 05:02:43;;;;;;;;;;;19.10;97.00;;;19.42;60.00;98484.38;4950352;28;123408;-85
2023/09/01 05:05:11;;;;;;;;;;;19.10;97.00;;;19.43;59.86;98480.38;4914048;28;124023;-85
2023/09/01 05:07:39;;;;;;;;;;;19.10;97.00;;;19.45;60.20;98474.41;4926853;28;114127;-86
2023/09/01 05:10:06;;;;;;;;;;;19.10;97.00;;;19.48;59.94;98490.44;4918832;28;112741;-87
2023/09/01 05:12:32;;;;;;;;;;;19.10;96.90;;;19.52;60.03;98493.28;4938845;28;123786;-86
2023/09/01 05:14:59;;;;;;;;;;;19.20;97.00;;;19.54;59.82;98488.13;4950802;28;124619;-85
2023/09/01 05:17:25;;;;;;;;;;;19.20;97.00;;;19.56;60.03;98492.16;4933655;28;114875;-86
2023/09/01 05:19:51;;;;;;;;;;;19.20;97.00;;;19.59;60.14;98505.41;4934806;28;114120;-86
2023/09/01 05:22:18;;;;;;;;;;;19.20;97.00;;;19.60;59.79;98495.00;4965626;28;124086;-86
2023/09/01 05:24:44;;;;;;;;;;;19.30;97.00;;;19.61;59.82;98496.59;4941588;28;124276;-86
2023/09/01 05:27:10;;;;;;;;;;;19.20;97.00;;;19.64;59.73;98491.06;4938139;28;114821;-85
2023/09/01 05:29:37;;;;;;;;;;;19.20;97.00;;;19.67;59.88;98497.94;4935301;28;113669;-87
2023/09/01 05:32:03;;;;;;;;;;;19.30;97.00;;;19.67;59.82;98494.31;4951237;28;124065;-85
2023/09/01 05:34:29;;;;;;;;;;;19.30;97.00;;;19.68;60.10;98496.72;4936331;28;124186;-85
2023/09/01 05:36:57;;;;;;;;;;;19.30;97.10;;;19.68;60.17;98507.94;4944204;28;113906;-87
2023/09/01 05:39:23;;;;;;;;;;;19.30;97.10;;;19.71;60.39;98500.78;4944886;28;113941;-86
2023/09/01 05:41:50;;;;;;;;;;;19.30;97.20;;;19.68;60.43;98507.94;4921974;28;124038;-85
2023/09/01 05:44:16;;;;;;;;;;;19.30;97.20;;;19.66;60.61;98510.31;4964119;28;123836;-84
2023/09/01 05:46:42;;;;;;;;;;;19.30;97.40;;;19.64;60.86;98510.69;4936090;28;114746;-85
2023/09/01 05:49:09;;;;;;;;;;;19.30;97.50;;;19.67;60.84;98525.97;4932709;28;114092;-86
2023/09/01 05:51:35;;;;;;;;;;;19.30;97.50;;;19.68;61.21;98519.16;4930809;28;124205;-85
2023/09/01 05:54:01;;;;;;;;;;;19.30;97.70;;;19.67;61.56;98516.75;4931476;28;123990;-86
2023/09/01 05:56:27;;;;;;;;;;;19.40;97.80;;;19.65;61.70;98520.69;4932044;28;114489;-86
2023/09/01 05:58:57;;;;;;;;;;;19.30;97.90;;;19.66;62.03;98518.72;4922063;28;113787;-86
2023/09/01 06:01:23;;;;;;;;;;;19.80;98.20;;;19.67;62.08;98525.97;4943238;28;124068;-84
2023/09/01 06:03:49;;;;;;;;;;;19.30;98.00;;;19.68;61.95;98535.97;4945640;28;123842;-84
2023/09/01 06:06:16;;;;;;;;;;;19.30;98.10;;;19.68;62.16;98541.56;4908773;28;113529;-83
2023/09/01 06:08:46;;;;;;;;;;;21.30;99.10;;;19.65;62.23;98534.69;4929830;28;113114;-84
2023/09/01 06:11:13;;;;;;;;;;;19.30;98.20;;;19.66;62.54;98546.75;4933170;28;124393;-84
2023/09/01 06:13:42;;;;;;;;;;;19.40;98.30;;;19.64;62.55;98546.31;4939392;28;123979;-83
2023/09/01 06:16:10;;;;;;;;;;;19.30;98.40;;;19.62;63.02;98554.28;4941021;28;115455;-84
2023/09/01 06:18:36;;;;;;;;;;;19.30;98.50;;;19.61;63.18;98552.66;4930049;28;113722;-83
2023/09/01 06:21:05;;;;;;;;;;;19.30;98.60;;;19.61;63.17;98555.44;4950241;28;124249;-83
2023/09/01 06:23:31;;;;;;;;;;;19.30;98.70;;;19.62;63.20;98557.88;4939291;28;124018;-86
2023/09/01 06:25:58;;;;;;;;;;;19.30;98.90;;;19.61;63.77;98561.88;4943648;28;114738;-85
2023/09/01 06:28:24;;;;;;;;;;;19.30;99.00;;;19.60;63.75;98559.44;4941297;28;112748;-83
2023/09/01 06:30:50;;;;;;;;;;;19.40;99.10;;;19.60;64.28;98565.84;4937903;28;124975;-84
2023/09/01 06:33:17;;;;;;;;;;;19.30;99.10;;;19.59;64.39;98566.25;4950617;28;124535;-84
2023/09/01 06:35:43;;;;;;;;;;;19.30;99.40;;;19.56;65.14;98567.81;4948777;28;114525;-84
2023/09/01 06:38:12;;;;;;;;;;;19.30;99.60;;;19.53;65.18;98562.13;4950366;28;113757;-83
2023/09/01 06:40:38;;;;;;;;;;;19.30;99.80;;;19.50;65.23;98571.31;4949346;28;124488;-83
2023/09/01 06:43:07;;;;;;;;;;;19.20;99.80;;;19.49;65.11;98566.91;4948182;28;125138;-83
2023/09/01 06:45:33;;;;;;;;;;;19.30;99.90;;;19.51;65.68;98561.72;4940020;28;114291;-85
2023/09/01 06:47:59;;;;;;;;;;;19.20;99.90;;;19.53;65.80;98562.13;4935432;28;114108;-84
2023/09/01 06:50:27;;;;;;;;;;;19.20;99.90;;;19.55;66.21;98562.59;4928652;28;124560;-84
2023/09/01 06:52:54;;;;;;;;;;;19.30;99.90;;;19.55;66.26;98566.19;4962245;28;124737;-84
2023/09/01 06:55:21;;;;;;;;;;;19.60;99.90;;;19.57;66.35;98561.00;4920660;28;113730;-84
2023/09/01 06:57:47;;;;;;;;;;;19.30;99.90;;;19.60;66.08;98567.88;4965076;28;113623;-83
2023/09/01 07:00:14;;;;;;;;;;;19.30;99.90;;;19.64;66.25;98565.94;4950283;28;124596;-84
2023/09/01 07:02:43;;;;;;;;;;;19.30;99.90;;;19.67;66.22;98573.59;4950069;28;124002;-83
2023/09/01 07:05:09;;;;;;;;;;;19.30;99.90;;;19.70;66.27;98578.44;4930373;28;115412;-83
2023/09/01 07:07:37;;;;;;;;;;;19.40;99.90;;;19.75;66.19;98586.53;4942747;28;114977;-84
2023/09/01 07:10:04;;;;;;;;;;;19.40;99.90;;;19.78;66.25;98585.78;4942930;28;124455;-83
2023/09/01 07:12:30;;;;;;;;;;;19.40;99.90;;;19.79;66.57;98587.38;4916993;28;123074;-84
2023/09/01 07:14:57;;;;;;;;;;;19.40;99.90;;;19.81;66.59;98582.22;4941189;28;113290;-85
2023/09/01 07:17:24;;;;;;;;;;;19.40;99.90;;;19.79;66.78;98587.38;4940769;28;113778;-83
2023/09/01 07:19:50;;;;;;;;;;;19.50;99.90;;;19.80;67.10;98589.00;4929082;28;125120;-84
2023/09/01 07:22:19;;;;;;;;;;;19.50;99.90;;;19.83;66.85;98593.06;4931524;28;124235;-84
2023/09/01 07:24:45;;;;;;;;;;;19.50;99.90;;;19.83;67.15;98593.06;4945221;28;114478;-85
2023/09/01 07:27:11;;;;;;;;;;;19.50;99.90;;;19.85;67.12;98587.84;4955635;28;113289;-83
2023/09/01 07:29:37;;;;;;;;;;;19.50;99.90;;;19.86;67.44;98586.69;4939263;28;124476;-83
2023/09/01 07:32:06;;;;;;;;;;;19.50;99.90;;;19.88;67.44;98577.88;4940620;28;124263;-82
2023/09/01 07:34:33;;;;;;;;;;;19.50;99.90;;;19.89;67.40;98571.91;4936174;28;114296;-83
2023/09/01 07:37:02;;;;;;;;;;;19.50;99.90;;;19.93;67.27;98571.94;4939496;28;112728;-85
2023/09/01 07:39:28;;;;;;;;;;;19.60;99.90;;;20.00;67.17;98580.44;4929846;28;124743;-84
2023/09/01 07:41:54;;;;;;;;;;;19.60;99.90;;;20.05;67.36;98582.94;4930664;28;122972;-85
2023/09/01 07:44:21;;;;;;;;;;;19.60;99.90;;;20.11;67.50;98575.78;4928817;28;113868;-85
2023/09/01 07:46:47;;;;;;;;;;;19.70;99.90;;;20.16;67.34;98581.06;4936624;28;113728;-85
2023/09/01 07:49:15;;;;;;;;;;;19.70;99.90;;;20.25;67.54;98578.75;4938338;28;123374;-84
2023/09/01 07:51:43;;;;;;;;;;;19.80;99.90;;;20.33;67.16;98588.06;4943568;28;123119;-84
2023/09/01 07:54:09;;;;;;;;;;;19.80;99.90;;;20.38;67.58;98584.13;4931630;28;115161;-85
2023/09/01 07:56:35;;;;;;;;;;;19.90;99.90;;;20.40;67.66;98585.34;4935441;28;114770;-85
2023/09/01 07:59:03;;;;;;;;;;;19.90;99.90;;;20.46;67.23;98597.03;4931178;28;124043;-83
2023/09/01 08:01:29;;;;;;;;;;;20.00;99.90;;;20.53;67.17;98585.91;4951880;28;124360;-85
2023/09/01 08:03:59;;;;;;;;;;;20.00;99.90;;;20.61;67.31;98592.44;4941881;28;115205;-84
2023/09/01 08:06:29;;;;;;;;;;;20.10;99.90;;;20.64;67.13;98589.66;4960284;28;113377;-84
2023/09/01 08:08:56;;;;;;;;;;;20.20;99.90;;;20.69;66.73;98594.91;4924115;28;124262;-84
2023/09/01 08:11:22;;;;;;;;;;;20.20;99.90;;;20.73;66.36;98590.13;4920022;28;124001;-85
2023/09/01 08:13:49;;;;;;;;;;;20.20;99.90;;;20.77;66.30;98593.00;4930723;28;114575;-84
2023/09/01 08:16:17;;;;;;;;;;;20.30;99.90;;;20.82;66.58;98591.81;4945160;28;113655;-84
2023/09/01 08:18:46;;;;;;;;;;;20.40;99.90;;;20.84;65.97;98589.44;4926395;28;124329;-82
2023/09/01 08:21:14;;;;;;;;;;;20.40;99.90;;;20.88;66.09;98595.91;4908785;28;123385;-84
2023/09/01 08:23:49;;;;;;;;;;;20.40;99.90;;;20.94;66.18;98600.78;4930445;28;113885;-85
2023/09/01 08:26:15;;;;;;;;;;;20.50;99.90;;;20.96;65.69;98609.63;4945310;28;115843;-83
2023/09/01 08:28:41;;;;;;;;;;;20.50;99.90;;;21.00;65.58;98606.84;4943388;28;124164;-84
2023/09/01 08:31:08;;;;;;;;;;;20.60;99.90;;;21.03;65.53;98608.88;4930755;28;124476;-84
2023/09/01 08:33:36;;;;;;;;;;;20.60;99.90;;;21.08;65.50;98608.53;4948795;28;114782;-84
2023/09/01 08:36:03;;;;;;;;;;;20.60;99.90;;;21.15;65.64;98608.59;4928817;28;113911;-84
2023/09/01 08:38:30;;;;;;;;;;;20.70;99.90;;;21.23;65.69;98605.84;4926159;28;124163;-83
2023/09/01 08:41:00;;;;;;;;;;;20.70;99.90;;;21.29;65.05;98609.91;4930544;28;122674;-83
2023/09/01 08:43:38;;;;;;;;;;;20.80;99.90;;;21.34;65.22;98609.56;4930906;28;116023;-83
2023/09/01 08:46:07;;;;;;;;;;;20.90;99.90;;;21.38;65.14;98602.78;4963263;28;114746;-83
2023/09/01 08:48:36;;;;;;;;;;;20.90;99.90;;;21.43;64.91;98612.84;4936548;28;123713;-84
2023/09/01 08:51:05;;;;;;;;;;;20.80;99.90;;;21.47;64.84;98602.47;4940310;28;123925;-83
2023/09/01 08:53:32;;;;;;;;;;;21.10;99.90;;;21.55;65.04;98609.75;4957323;28;114491;-84
2023/09/01 08:55:58;;;;;;;;;;;21.00;99.90;;;21.61;64.44;98615.81;4946866;28;113925;-82
2023/09/01 08:58:27;;;;;;;;;;;21.10;99.90;;;21.67;64.11;98607.81;4936892;28;123944;-82
2023/09/01 09:00:58;;;;;;;;;;;21.20;99.90;;;21.72;63.88;98615.88;4954263;28;124250;-81
2023/09/01 09:03:24;;;;;;;;;;;21.20;99.90;;;21.75;64.07;98609.47;4939254;28;114358;-81
2023/09/01 09:05:52;;;;;;;;;;;21.30;99.90;;;21.80;63.80;98606.28;4943981;28;113560;-81
2023/09/01 09:08:20;;;;;;;;;;;21.30;99.90;;;21.83;63.90;98603.50;4967686;28;123336;-82
2023/09/01 09:10:46;;;;;;;;;;;21.30;99.90;;;21.88;63.35;98607.16;4941949;28;124001;-83
2023/09/01 09:13:31;;;;;;;;;;;21.40;99.90;;;21.93;62.71;98599.13;4957331;28;113570;-83
2023/09/01 09:16:14;;;;;;;;;;;21.40;99.90;;;21.99;62.55;98597.56;4955151;28;114021;-83
2023/09/01 09:18:44;;;;;;;;;;;21.50;99.90;;;22.09;62.23;98593.19;4922498;28;123865;-83
2023/09/01 09:21:23;;;;;;;;;;;21.60;99.90;;;22.15;62.05;98582.34;4946784;28;123582;-84
2023/09/01 09:23:50;;;;;;;;;;;21.60;99.80;;;22.20;61.57;98596.06;4938191;28;114540;-83
2023/09/01 09:26:16;;;;;;;;;;;21.70;99.60;;;22.23;61.22;98595.28;4944336;28;112919;-84
2023/09/01 09:28:48;;;;;;;;;;;21.70;99.40;;;22.24;61.06;98603.31;4921308;28;124296;-83
2023/09/01 09:31:14;;;;;;;;;;;19.90;98.50;;;22.29;61.02;98599.31;4954981;28;124016;-83
2023/09/01 09:33:42;;;;;;;;;;;21.80;99.30;;;22.35;60.32;98605.38;4931325;28;115280;-83
2023/09/01 09:36:09;;;;;;;;;;;21.90;99.10;;;22.38;60.56;98596.13;4926855;28;115769;-83
2023/09/01 09:38:47;;;;;;;;;;;21.90;99.00;;;22.42;60.04;98602.59;4937286;28;124718;-82
2023/09/01 09:41:16;;;;;;;;;;;21.90;98.90;;;22.45;59.58;98598.97;4952919;28;124262;-82
2023/09/01 09:43:46;;;;;;;;;;;22.00;98.60;;;22.49;59.87;98602.63;4949462;28;114084;-82
2023/09/01 09:46:14;;;;;;;;;;;22.00;98.60;;;22.55;59.04;98603.84;4938999;28;112865;-82
2023/09/01 09:48:43;;;;;;;;;;;22.00;98.20;;;22.57;58.99;98609.06;4935548;28;123729;-82
2023/09/01 09:51:10;;;;;;;;;;;22.10;98.10;;;22.57;58.31;98611.88;4944485;28;123737;-82
2023/09/01 09:53:38;;;;;;;;;;;22.10;97.70;;;22.54;58.06;98601.41;4936135;28;113624;-82
2023/09/01 09:56:30;;;;;;;;;;;22.10;97.50;;;22.50;58.00;98610.66;4945424;28;113870;-82
2023/09/01 09:59:03;;;;;;;;;;;22.10;97.50;;;22.48;58.18;98621.50;4932307;28;124248;-83
2023/09/01 10:01:35;;;;;;;;;;;22.10;97.50;;;22.47;58.86;98628.34;4916023;28;122866;-83
2023/09/01 10:04:05;;;;;;;;;;;22.10;97.70;;;22.46;58.61;98631.56;4922354;28;114427;-82
2023/09/01 10:06:35;;;;;;;;;;;22.10;97.70;;;22.47;59.01;98617.09;4936554;28;113533;-82
2023/09/01 10:09:05;;;;;;;;;;;22.10;97.70;;;22.48;58.82;98624.31;4945779;28;126272;-82
2023/09/01 10:11:32;;;;;;;;;;;22.10;97.70;;;22.47;58.97;98621.91;4933139;28;123685;-83
2023/09/01 10:13:59;;;;;;;;;;;22.10;97.70;;;22.45;59.03;98625.13;4931813;28;114444;-82
2023/09/01 10:16:26;;;;;;;;;;;22.10;97.80;;;22.46;59.58;98625.91;4943495;28;112770;-84
2023/09/01 10:18:56;;;;;;;;;;;22.20;97.90;;;22.49;59.46;98625.94;4945720;28;124405;-82
2023/09/01 10:21:22;;;;;;;;;;;22.20;97.90;;;22.51;59.40;98631.16;4947044;28;124640;-83
2023/09/01 10:23:49;;;;;;;;;;;22.20;97.90;;;22.55;59.42;98617.91;4917871;28;115766;-83
2023/09/01 10:26:28;;;;;;;;;;;22.30;98.00;;;22.62;59.69;98612.31;4921028;28;114494;-82
2023/09/01 10:28:59;;;;;;;;;;;22.30;98.10;;;22.70;59.85;98615.94;4943837;28;124445;-83
2023/09/01 10:31:33;;;;;;;;;;;22.30;98.20;;;22.75;59.83;98611.94;4963543;28;124103;-82
2023/09/01 10:34:10;;;;;;;;;;;22.40;98.30;;;22.82;59.82;98609.16;4965310;28;114455;-83
2023/09/01 10:36:38;;;;;;;;;;;22.40;98.30;;;22.84;59.49;98613.19;4940941;28;113687;-82
2023/09/01 10:39:16;;;;;;;;;;;22.50;98.20;;;22.88;59.40;98605.53;4933808;28;124367;-82
2023/09/01 10:42:00;;;;;;;;;;;22.50;98.20;;;22.93;59.00;98615.59;4936464;28;123975;-82
2023/09/01 10:44:44;;;;;;;;;;;22.50;98.10;;;22.92;58.96;98609.16;4945155;28;115132;-82
2023/09/01 10:47:34;;;;;;;;;;;22.60;98.00;;;22.96;58.87;98608.34;4967610;28;112381;-82
2023/09/01 10:50:02;;;;;;;;;;;22.60;98.20;;;23.01;58.67;98605.97;4931041;28;124209;-83
2023/09/01 10:52:29;;;;;;;;;;;22.60;97.80;;;23.06;58.47;98608.41;4923733;28;124171;-83
2023/09/01 10:55:05;;;;;;;;;;;22.70;97.60;;;23.12;57.91;98603.16;4929220;28;114762;-82
2023/09/01 10:57:42;;;;;;;;;;;22.70;97.50;;;23.16;57.83;98598.34;4942300;28;113104;-82
2023/09/01 11:00:29;;;;;;;;;;;22.70;97.40;;;23.20;57.79;98596.31;4964674;28;124383;-81
2023/09/01 11:03:33;;;;;;;;;;;22.80;97.50;;;23.27;58.08;98604.78;4954854;28;123653;-82
2023/09/01 11:06:01;;;;;;;;;;;22.90;97.50;;;23.34;57.78;98596.31;4931848;28;113807;-81
2023/09/01 11:08:28;;;;;;;;;;;22.90;97.40;;;23.41;57.66;98601.16;4943433;28;113919;-82
2023/09/01 11:11:00;;;;;;;;;;;23.00;97.40;;;23.45;57.33;98603.97;4931725;28;124971;-82
2023/09/01 11:13:26;;;;;;;;;;;23.00;97.20;;;23.48;57.23;98597.50;4944065;28;123953;-82
2023/09/01 11:15:55;;;;;;;;;;;23.10;97.20;;;23.53;57.07;98591.47;4931382;28;116005;-82